LFPOTNCM

Guest
Details From LFPO - Paris Orly
To TNCM - St Maarten - Princess Juliana Intl
Flight Number -
Tags Decoded
Created
Modified
Stats Distance 3,632 nm / 6,726 km
Max Altitude 0 ft / 0 m
Waypoints 2
Social Downloads 3
Likes 0
Share VATSIM

Download

Looking for another format? Having issues loading an existing format? Contact us
Advertisement - Login to hide

Notes

Decoded

Route

LFPO TNCM

ID Type Via Altitude Latitude Longitude Leg Dist Tot Dist Heading (true) Name
O LFPO APT - 0 ft / 0 m 48.71772˚ 2.37681˚ - 0 nm - -
O TNCM APT - 0 ft / 0 m 18.03937˚ -63.11961˚ 3631 nm 3631 nm 264° / 224° -

Altitude Profile

Advertisement - Login to hide

Weather


0- 5 10 15 20 25 30 35+ Temperature / ° C

Clouds and Precipitation
Forecast for 2018-05-26 12:00 UTC. Updated 5 hours ago

Ground ~20,000 ft ~40,000 ft Winds

LFPO

Details ICAO LFPO (ORY)
Name Paris Orly
Region France
Timezone Europe/Paris (UTC+2.0)
Stats Elevation 291 ft / 89 m (AMSL)
Location 48.726360° 2.367029°
Runways 3
Magnetic Variation 0.660° E

METAR

LFPO 261606Z 10012KT CAVOK 27/15 Q1014 NOSIG

Decode

TAF

TAF LFPO 261100Z 2612/2718 10008KT CAVOK TEMPO 2612/2624 12015G25KT -SHRA SCT060TCU PROB40 TEMPO 2618/2621 20017G35KT 2500 -TSRA SCT009 BKN050CB BECMG 2710/2712 SCT030TCU TEMPO 2712/2718 15015G27KT SCT060TCU PROB30 TEMPO 2711/2714 4000 -TSRA BKN040CB PROB40 TEMPO 2714/2718 2500 -TSRAGR SCT009 BKN050CB

Decode

Departure Runways

ID Width Length Bearing (true) Bearing (mag) Surface Threshold Offset Overrun Length
02 197 ft / 60 m 7,873 ft / 2,400 m 18.29° 17.63° Concrete 0 ft / 0 m 0 ft / 0 m
06 148 ft / 45 m 11,952 ft / 3,643 m 61.78° 61.12° Asphalt 984 ft / 300 m 197 ft / 60 m
08 148 ft / 45 m 10,868 ft / 3,313 m 74.36° 73.70° Concrete 0 ft / 0 m 1,050 ft / 320 m
20 197 ft / 60 m 7,873 ft / 2,400 m 198.30° 197.64° Concrete 0 ft / 0 m 0 ft / 0 m
24 148 ft / 45 m 11,952 ft / 3,643 m 241.81° 241.15° Asphalt 0 ft / 0 m 197 ft / 60 m
26 148 ft / 45 m 10,868 ft / 3,313 m 254.39° 253.73° Concrete 1,427 ft / 435 m 0 ft / 0 m

TNCM

Details ICAO TNCM (SXM)
Name St Maarten - Princess Juliana Intl
Region Caribbean Netherlands, Aruba, Curaçao, Sint Maarten
Timezone Unknown (UTC+0.0)
Stats Elevation 12 ft / 4 m (AMSL)
Location 18.040889° -63.108974°
Runways 1
Magnetic Variation 14.337° W

METAR

TNCM 261600Z 10011KT 070V140 9999 FEW022 30/22 Q1016 A3001 NOSIG

Decode

TAF

TAF TNCM 261143Z 2612/2712 09010KT P6SM FEW018 FM261400 11014KT P6SM SCT020 FM262300 09010KT P6SM VCSH SCT018 SCT040

Decode

Destination Runways

ID Width Length Bearing (true) Bearing (mag) Surface Threshold Offset Overrun Length
10 148 ft / 45 m 7,464 ft / 2,275 m 81.43° 95.77° Asphalt 0 ft / 0 m 151 ft / 46 m
28 148 ft / 45 m 7,464 ft / 2,275 m 261.44° 275.78° Asphalt 397 ft / 121 m 0 ft / 0 m

Popular Alternatives